Time;durP1;ratioP1;P1;durP2;ratioP2;P2;SDS_P1;SDS_P2;PMS_P1;PMS_P2;Temp;Humidity;BMP_temperature;BMP_pressure;BME280_temperature;BME280_humidity;BME280_pressure;Samples;Min_cycle;Max_cycle;Signal;HPM_P1;HPM_P2
2022/05/25 00:00:25;;;;;;;0.17;0.17;;;;;;;;;;5113539;28;20015;-81
2022/05/25 00:02:52;;;;;;;0.10;0.10;;;;;;;;;;5096589;28;20028;-81
2022/05/25 00:05:19;;;;;;;0.10;0.10;;;;;;;;;;5114579;28;20395;-81
2022/05/25 00:07:45;;;;;;;0.10;0.10;;;;;;;;;;5114775;28;20028;-81
2022/05/25 00:10:12;;;;;;;0.10;0.10;;;;;;;;;;5096847;28;20486;-81
2022/05/25 00:12:39;;;;;;;0.10;0.10;;;;;;;;;;5096738;28;20031;-81
2022/05/25 00:15:05;;;;;;;0.10;0.10;;;;;;;;;;5114174;28;20115;-81
2022/05/25 00:17:31;;;;;;;0.10;0.10;;;;;;;;;;5114351;28;20031;-81
2022/05/25 00:20:00;;;;;;;0.10;0.10;;;;;;;;;;5114559;28;20031;-81
2022/05/25 00:22:27;;;;;;;0.20;0.20;;;;;;;;;;5095929;28;20024;-80
2022/05/25 00:24:56;;;;;;;0.10;0.10;;;;;;;;;;5114500;28;20024;-81
2022/05/25 00:27:22;;;;;;;0.10;0.10;;;;;;;;;;5095864;28;20066;-83
2022/05/25 00:29:48;;;;;;;0.10;0.10;;;;;;;;;;5114462;28;20047;-83
2022/05/25 00:32:14;;;;;;;0.10;0.10;;;;;;;;;;5096057;28;20065;-83
2022/05/25 00:34:40;;;;;;;0.10;0.10;;;;;;;;;;5096418;28;20077;-83
2022/05/25 00:37:06;;;;;;;0.10;0.10;;;;;;;;;;5095977;28;20027;-82
2022/05/25 00:39:32;;;;;;;0.10;0.10;;;;;;;;;;5114099;28;20108;-82
2022/05/25 00:41:58;;;;;;;0.10;0.10;;;;;;;;;;5114276;28;20471;-81
2022/05/25 00:44:24;;;;;;;0.20;0.20;;;;;;;;;;5113915;28;20084;-81
2022/05/25 00:46:52;;;;;;;0.10;0.10;;;;;;;;;;5114015;28;20064;-81
2022/05/25 00:49:24;;;;;;;0.10;0.10;;;;;;;;;;5095470;28;20546;-80
2022/05/25 00:51:55;;;;;;;0.10;0.10;;;;;;;;;;5113888;28;20050;-81
2022/05/25 00:54:30;;;;;;;0.20;0.20;;;;;;;;;;5113597;28;20023;-80
2022/05/25 00:56:57;;;;;;;0.20;0.20;;;;;;;;;;5095484;28;20090;-80
2022/05/25 00:59:28;;;;;;;0.10;0.10;;;;;;;;;;5095117;28;20044;-80
2022/05/25 01:01:55;;;;;;;0.10;0.10;;;;;;;;;;5113858;28;20090;-81
2022/05/25 01:04:21;;;;;;;0.10;0.10;;;;;;;;;;5113404;28;20106;-80
2022/05/25 01:06:54;;;;;;;0.10;0.10;;;;;;;;;;5113596;28;20031;-81
2022/05/25 01:09:39;;;;;;;0.13;0.13;;;;;;;;;;5113388;28;20499;-81
2022/05/25 01:12:05;;;;;;;0.10;0.10;;;;;;;;;;5112445;28;20467;-81
2022/05/25 01:14:44;;;;;;;0.10;0.10;;;;;;;;;;5094742;28;20039;-81
2022/05/25 01:17:26;;;;;;;0.10;0.10;;;;;;;;;;5113631;28;20023;-81
2022/05/25 01:20:04;;;;;;;0.10;0.10;;;;;;;;;;5113341;28;20023;-81
2022/05/25 01:22:49;;;;;;;0.10;0.10;;;;;;;;;;5094756;28;20054;-82
2022/05/25 01:25:30;;;;;;;0.10;0.10;;;;;;;;;;5094702;28;20096;-81
2022/05/25 01:28:00;;;;;;;0.10;0.10;;;;;;;;;;5094900;28;20055;-81
2022/05/25 01:30:40;;;;;;;0.10;0.10;;;;;;;;;;5094407;28;20041;-81
2022/05/25 01:33:15;;;;;;;0.10;0.10;;;;;;;;;;5113052;28;20133;-80
2022/05/25 01:35:44;;;;;;;0.10;0.10;;;;;;;;;;5094964;28;20517;-81
2022/05/25 01:38:29;;;;;;;0.10;0.10;;;;;;;;;;5113267;28;20039;-81
2022/05/25 01:40:59;;;;;;;0.10;0.10;;;;;;;;;;5094629;28;20026;-80
2022/05/25 01:43:28;;;;;;;0.20;0.20;;;;;;;;;;5112716;28;20028;-80
2022/05/25 01:45:56;;;;;;;0.10;0.10;;;;;;;;;;5112840;28;20024;-81
2022/05/25 01:48:23;;;;;;;0.10;0.10;;;;;;;;;;5112577;28;20106;-81
2022/05/25 01:51:01;;;;;;;0.10;0.10;;;;;;;;;;5094457;28;20024;-81
2022/05/25 01:53:33;;;;;;;0.10;0.10;;;;;;;;;;5094160;28;20032;-80
2022/05/25 01:56:02;;;;;;;0.13;0.13;;;;;;;;;;5112646;28;20028;-80
2022/05/25 01:58:28;;;;;;;0.10;0.10;;;;;;;;;;5094052;28;20040;-80
2022/05/25 02:00:59;;;;;;;0.10;0.10;;;;;;;;;;5112525;28;20076;-80
2022/05/25 02:06:29;;;;;;;0.20;0.20;;;;;;;;;;5112877;28;20054;-79
2022/05/25 02:08:55;;;;;;;0.10;0.10;;;;;;;;;;5112429;28;20026;-79
2022/05/25 02:11:21;;;;;;;0.10;0.10;;;;;;;;;;5093839;28;20019;-80
2022/05/25 02:14:06;;;;;;;0.10;0.10;;;;;;;;;;5112206;28;20083;-80
2022/05/25 02:16:41;;;;;;;0.10;0.10;;;;;;;;;;5093755;28;20054;-79
2022/05/25 02:19:13;;;;;;;0.10;0.10;;;;;;;;;;5094308;28;20514;-79
2022/05/25 02:21:39;;;;;;;0.10;0.10;;;;;;;;;;5112371;28;20015;-79
2022/05/25 02:24:28;;;;;;;0.10;0.10;;;;;;;;;;5093851;28;20049;-79
2022/05/25 02:27:00;;;;;;;0.10;0.10;;;;;;;;;;5093924;28;20399;-79
2022/05/25 02:29:26;;;;;;;0.10;0.10;;;;;;;;;;5093603;28;20092;-79
2022/05/25 02:31:55;;;;;;;0.10;0.10;;;;;;;;;;5112036;28;20024;-79
2022/05/25 02:34:23;;;;;;;0.10;0.10;;;;;;;;;;5111714;28;20015;-79
2022/05/25 02:36:50;;;;;;;0.10;0.10;;;;;;;;;;5093645;28;20047;-80
2022/05/25 02:39:16;;;;;;;0.10;0.10;;;;;;;;;;5111623;28;20035;-80
2022/05/25 02:41:46;;;;;;;0.10;0.10;;;;;;;;;;5094030;28;20115;-80
2022/05/25 02:44:13;;;;;;;0.10;0.10;;;;;;;;;;5111716;28;20023;-81
2022/05/25 02:46:39;;;;;;;0.10;0.10;;;;;;;;;;5093794;28;20122;-80
2022/05/25 02:49:05;;;;;;;0.10;0.10;;;;;;;;;;5093445;28;20074;-81
2022/05/25 02:51:31;;;;;;;0.10;0.10;;;;;;;;;;5093284;28;20020;-81
2022/05/25 02:53:57;;;;;;;0.10;0.10;;;;;;;;;;5093564;28;20028;-81
2022/05/25 02:56:23;;;;;;;0.10;0.10;;;;;;;;;;5111426;28;20012;-81
2022/05/25 02:58:49;;;;;;;0.10;0.10;;;;;;;;;;5093306;28;20414;-81
2022/05/25 03:01:15;;;;;;;0.10;0.10;;;;;;;;;;5111238;28;20081;-81
2022/05/25 03:03:41;;;;;;;0.10;0.10;;;;;;;;;;5111578;28;20441;-80
2022/05/25 03:06:08;;;;;;;0.10;0.10;;;;;;;;;;5111889;28;20016;-81
2022/05/25 03:08:35;;;;;;;0.10;0.10;;;;;;;;;;5093083;28;20122;-81
2022/05/25 03:11:02;;;;;;;0.10;0.10;;;;;;;;;;5111552;28;20046;-81
2022/05/25 03:13:28;;;;;;;0.10;0.10;;;;;;;;;;5112658;28;20031;-79
2022/05/25 03:15:57;;;;;;;0.10;0.10;;;;;;;;;;5131807;28;20540;-80
2022/05/25 03:18:23;;;;;;;0.03;0.03;;;;;;;;;;5113398;28;20426;-80
2022/05/25 03:20:50;;;;;;;0.10;0.10;;;;;;;;;;5132028;28;20024;-80
2022/05/25 03:23:19;;;;;;;0.10;0.10;;;;;;;;;;5131898;28;20042;-79
2022/05/25 03:25:45;;;;;;;0.10;0.10;;;;;;;;;;5113731;28;20019;-79
2022/05/25 03:28:11;;;;;;;0.10;0.10;;;;;;;;;;5112058;28;20501;-80
2022/05/25 03:30:38;;;;;;;0.10;0.10;;;;;;;;;;5119861;28;20187;-81
2022/05/25 03:33:04;;;;;;;0.10;0.10;;;;;;;;;;5111396;28;20091;-81
2022/05/25 03:35:30;;;;;;;0.10;0.10;;;;;;;;;;5114264;28;20040;-81
2022/05/25 03:37:56;;;;;;;0.10;0.10;;;;;;;;;;5115394;28;20020;-81
2022/05/25 03:40:22;;;;;;;0.10;0.10;;;;;;;;;;5115140;28;20102;-81
2022/05/25 03:42:48;;;;;;;0.10;0.10;;;;;;;;;;5097041;28;20066;-81
2022/05/25 03:45:15;;;;;;;0.10;0.10;;;;;;;;;;5112305;27;20031;-80
2022/05/25 03:47:42;;;;;;;0.10;0.10;;;;;;;;;;5136031;27;20110;-80
2022/05/25 03:50:08;;;;;;;0.10;0.10;;;;;;;;;;5135944;27;20038;-80
2022/05/25 03:52:34;;;;;;;0.10;0.10;;;;;;;;;;5135462;27;20417;-81
2022/05/25 03:55:01;;;;;;;0.10;0.10;;;;;;;;;;5135580;27;20027;-80
2022/05/25 03:57:27;;;;;;;0.10;0.10;;;;;;;;;;5127671;27;20119;-80
2022/05/25 03:59:53;;;;;;;0.10;0.10;;;;;;;;;;5114551;28;20050;-80
2022/05/25 04:02:20;;;;;;;0.10;0.10;;;;;;;;;;5114607;28;20015;-80
2022/05/25 04:04:46;;;;;;;0.15;0.15;;;;;;;;;;5113552;28;20024;-80
2022/05/25 04:07:12;;;;;;;0.10;0.10;;;;;;;;;;5114797;28;20016;-80
2022/05/25 04:09:38;;;;;;;0.10;0.10;;;;;;;;;;5115072;28;20027;-82
2022/05/25 04:12:05;;;;;;;0.10;0.10;;;;;;;;;;5114774;28;20073;-80
2022/05/25 04:14:31;;;;;;;0.10;0.10;;;;;;;;;;5111746;27;20065;-80
2022/05/25 04:16:57;;;;;;;0.10;0.10;;;;;;;;;;5117062;27;20032;-80
2022/05/25 04:19:24;;;;;;;0.10;0.10;;;;;;;;;;5102016;27;20424;-80
2022/05/25 04:21:50;;;;;;;0.10;0.10;;;;;;;;;;5102000;28;20035;-81
2022/05/25 04:24:16;;;;;;;0.10;0.10;;;;;;;;;;5115269;27;20024;-79
2022/05/25 04:26:42;;;;;;;0.10;0.10;;;;;;;;;;5114398;28;20020;-79
2022/05/25 04:29:08;;;;;;;0.10;0.10;;;;;;;;;;5124476;27;20102;-80
2022/05/25 04:31:34;;;;;;;0.10;0.10;;;;;;;;;;5134538;27;20056;-80
2022/05/25 04:34:00;;;;;;;0.10;0.10;;;;;;;;;;5134807;27;20027;-80
2022/05/25 04:36:26;;;;;;;0.10;0.10;;;;;;;;;;5134512;27;20044;-80
2022/05/25 04:38:53;;;;;;;0.10;0.10;;;;;;;;;;5101716;28;20027;-80
2022/05/25 04:41:19;;;;;;;0.10;0.10;;;;;;;;;;5113583;27;20028;-81
2022/05/25 04:43:45;;;;;;;0.10;0.10;;;;;;;;;;5121287;27;20060;-80
2022/05/25 04:46:12;;;;;;;0.10;0.10;;;;;;;;;;5121777;27;20027;-79
2022/05/25 04:48:38;;;;;;;0.10;0.10;;;;;;;;;;5112664;28;20027;-79
2022/05/25 04:51:04;;;;;;;0.10;0.10;;;;;;;;;;5113871;28;20019;-79
2022/05/25 04:53:30;;;;;;;0.10;0.10;;;;;;;;;;5112357;28;20111;-80
2022/05/25 04:58:46;;;;;;;0.10;0.10;;;;;;;;;;5125461;27;20578;-79
2022/05/25 05:01:13;;;;;;;0.10;0.10;;;;;;;;;;5123088;27;20470;-81
2022/05/25 05:03:39;;;;;;;0.10;0.10;;;;;;;;;;5134067;27;20023;-79
2022/05/25 05:06:06;;;;;;;0.10;0.10;;;;;;;;;;5132429;27;20019;-79
2022/05/25 05:08:33;;;;;;;0.10;0.10;;;;;;;;;;5124279;27;20031;-78
2022/05/25 05:11:05;;;;;;;0.10;0.10;;;;;;;;;;5113478;28;20526;-79
2022/05/25 05:13:31;;;;;;;0.10;0.10;;;;;;;;;;5114062;27;20031;-79
2022/05/25 05:16:02;;;;;;;0.13;0.13;;;;;;;;;;5096046;28;20024;-80
2022/05/25 05:18:28;;;;;;;0.10;0.10;;;;;;;;;;5123378;27;20391;-79
2022/05/25 05:20:54;;;;;;;0.10;0.10;;;;;;;;;;5133788;27;20026;-80
2022/05/25 05:23:20;;;;;;;0.10;0.10;;;;;;;;;;5133424;27;20024;-79
2022/05/25 05:25:46;;;;;;;0.10;0.10;;;;;;;;;;5113303;27;20024;-79
2022/05/25 05:28:18;;;;;;;0.10;0.10;;;;;;;;;;5113706;27;20208;-79
2022/05/25 05:30:48;;;;;;;0.10;0.10;;;;;;;;;;5112546;27;20035;-79
2022/05/25 05:33:14;;;;;;;0.10;0.10;;;;;;;;;;5112884;28;20432;-79
2022/05/25 05:35:40;;;;;;;0.13;0.13;;;;;;;;;;5113425;28;20024;-79
2022/05/25 05:38:06;;;;;;;0.10;0.10;;;;;;;;;;5112911;28;20036;-79
2022/05/25 05:40:32;;;;;;;0.10;0.10;;;;;;;;;;5122567;27;20038;-80
2022/05/25 05:43:00;;;;;;;0.10;0.10;;;;;;;;;;5113371;28;20028;-77
2022/05/25 05:45:27;;;;;;;0.10;0.10;;;;;;;;;;5116162;27;20024;-78
2022/05/25 05:48:01;;;;;;;0.10;0.10;;;;;;;;;;5094306;28;20019;-78
2022/05/25 05:50:28;;;;;;;0.10;0.10;;;;;;;;;;5094035;28;20031;-77
2022/05/25 05:52:54;;;;;;;0.10;0.10;;;;;;;;;;5129260;27;20042;-78
2022/05/25 05:55:20;;;;;;;0.10;0.10;;;;;;;;;;5091921;28;20063;-78
2022/05/25 05:57:46;;;;;;;0.10;0.10;;;;;;;;;;5104748;28;20023;-78
2022/05/25 06:00:15;;;;;;;0.10;0.10;;;;;;;;;;5122550;27;20039;-79
2022/05/25 06:02:41;;;;;;;0.10;0.10;;;;;;;;;;5115791;27;20039;-79
2022/05/25 06:05:07;;;;;;;0.20;0.20;;;;;;;;;;5115426;27;20137;-80
2022/05/25 06:07:33;;;;;;;0.10;0.10;;;;;;;;;;5113258;27;20061;-80
2022/05/25 06:09:59;;;;;;;0.10;0.10;;;;;;;;;;5121195;27;20063;-79
2022/05/25 06:12:27;;;;;;;0.10;0.10;;;;;;;;;;5116835;27;20025;-79
2022/05/25 06:14:53;;;;;;;0.10;0.10;;;;;;;;;;5119189;27;20042;-78
2022/05/25 06:20:03;;;;;;;0.10;0.10;;;;;;;;;;5106889;27;20042;-79
2022/05/25 06:22:31;;;;;;;0.10;0.10;;;;;;;;;;5111431;28;20027;-78
2022/05/25 06:24:57;;;;;;;0.10;0.10;;;;;;;;;;5111914;28;20360;-79
2022/05/25 06:27:23;;;;;;;0.10;0.10;;;;;;;;;;5111676;28;20483;-78
2022/05/25 06:29:49;;;;;;;0.10;0.10;;;;;;;;;;5092370;28;20032;-80
2022/05/25 06:32:17;;;;;;;0.10;0.10;;;;;;;;;;5091423;28;20058;-80
2022/05/25 06:34:48;;;;;;;0.10;0.10;;;;;;;;;;5091611;28;20035;-81
2022/05/25 06:37:24;;;;;;;0.10;0.10;;;;;;;;;;5091237;28;20095;-80
2022/05/25 06:39:51;;;;;;;0.10;0.10;;;;;;;;;;5093899;28;20055;-83
2022/05/25 06:42:17;;;;;;;0.10;0.10;;;;;;;;;;5125376;27;20515;-82
2022/05/25 06:44:44;;;;;;;0.13;0.13;;;;;;;;;;5113960;27;20053;-84
2022/05/25 06:47:14;;;;;;;0.10;0.10;;;;;;;;;;5132573;27;20110;-78
2022/05/25 06:49:40;;;;;;;0.10;0.10;;;;;;;;;;5132561;27;20046;-79
2022/05/25 06:52:08;;;;;;;0.10;0.10;;;;;;;;;;5132344;27;20055;-79
2022/05/25 06:54:34;;;;;;;0.10;0.10;;;;;;;;;;5131984;27;20020;-79
2022/05/25 06:57:00;;;;;;;0.10;0.10;;;;;;;;;;5116581;27;20027;-79
2022/05/25 06:59:26;;;;;;;0.10;0.10;;;;;;;;;;5123379;27;20393;-78
2022/05/25 07:01:52;;;;;;;0.10;0.10;;;;;;;;;;5093101;28;20020;-80
2022/05/25 07:04:18;;;;;;;0.10;0.10;;;;;;;;;;5093350;28;20023;-80
2022/05/25 07:06:44;;;;;;;0.10;0.10;;;;;;;;;;5091222;28;20025;-80
2022/05/25 07:09:10;;;;;;;0.10;0.10;;;;;;;;;;5101992;27;20068;-80
2022/05/25 07:11:38;;;;;;;0.10;0.10;;;;;;;;;;5104415;27;20038;-81
2022/05/25 07:14:04;;;;;;;0.20;0.20;;;;;;;;;;5104406;28;20391;-80
